createdAt,value
2019-06-01T00:01:40.383Z,98253.56
2019-06-01T00:04:08.984Z,98242.94
2019-06-01T00:06:37.105Z,98252.66
2019-06-01T00:09:06.455Z,98246.42
2019-06-01T00:11:34.580Z,98242.14
2019-06-01T00:14:04.466Z,98242.52
2019-06-01T00:16:32.811Z,98243.72
2019-06-01T00:19:01.938Z,98242.19
2019-06-01T00:21:29.863Z,98247.61
2019-06-01T00:23:57.920Z,98244.03
2019-06-01T00:26:25.613Z,98240.77
2019-06-01T00:28:53.454Z,98245.83
2019-06-01T00:31:21.488Z,98240.75
2019-06-01T00:33:49.883Z,98250.08
2019-06-01T00:36:17.636Z,98232.66
2019-06-01T00:38:45.753Z,98231.38
2019-06-01T00:41:13.601Z,98233.59
2019-06-01T00:43:42.096Z,98227.31
2019-06-01T00:46:10.039Z,98223.57
2019-06-01T00:48:37.995Z,98208.44
2019-06-01T00:51:05.924Z,98229.58
2019-06-01T00:53:34.813Z,98228.15
2019-06-01T00:56:02.719Z,98221.58
2019-06-01T00:58:30.762Z,98226.07
2019-06-01T01:00:58.767Z,98223.99
2019-06-01T01:03:26.951Z,98221.09
2019-06-01T01:05:54.953Z,98219.33
2019-06-01T01:08:22.643Z,98222.90
2019-06-01T01:10:51.075Z,98218.07
2019-06-01T01:13:21.410Z,98218.64
2019-06-01T01:15:49.702Z,98214.42
2019-06-01T01:18:17.696Z,98212.50
2019-06-01T01:20:45.970Z,98213.70
2019-06-01T01:23:14.334Z,98202.02
2019-06-01T01:25:42.368Z,98207.97
2019-06-01T01:28:10.485Z,98193.44
2019-06-01T01:30:38.453Z,98172.89
2019-06-01T01:33:06.789Z,98191.72
2019-06-01T01:35:34.814Z,98198.12
2019-06-01T01:38:02.810Z,98192.38
2019-06-01T01:40:31.107Z,98199.60
2019-06-01T01:42:59.386Z,98194.94
2019-06-01T01:45:27.546Z,98187.20
2019-06-01T01:47:55.555Z,98186.38
2019-06-01T01:50:25.084Z,98187.20
2019-06-01T01:52:53.254Z,98195.78
2019-06-01T01:55:21.746Z,98187.78
2019-06-01T01:57:50.933Z,98182.34
2019-06-01T02:00:35.329Z,98181.95
2019-06-01T02:03:03.501Z,98172.52
2019-06-01T02:05:31.387Z,98165.91
2019-06-01T02:08:00.108Z,98168.47
2019-06-01T02:10:28.508Z,98160.39
2019-06-01T02:12:57.549Z,98163.87
2019-06-01T02:15:25.430Z,98160.84
2019-06-01T02:17:53.966Z,98158.45
2019-06-01T02:20:21.733Z,98155.05
2019-06-01T02:22:49.972Z,98160.02
2019-06-01T02:25:17.762Z,98161.15
2019-06-01T02:27:45.971Z,98158.13
2019-06-01T02:30:15.136Z,98163.73
2019-06-01T02:32:43.396Z,98163.71
2019-06-01T02:35:11.691Z,98162.31
2019-06-01T02:37:39.776Z,98167.88
2019-06-01T02:40:09.476Z,98167.50
2019-06-01T02:42:37.505Z,98167.68
2019-06-01T02:45:09.430Z,98167.26
2019-06-01T02:47:37.353Z,98168.95
2019-06-01T02:50:06.523Z,98163.91
2019-06-01T02:52:34.813Z,98167.41
2019-06-01T02:55:04.580Z,98166.07
2019-06-01T02:57:32.738Z,98172.23
2019-06-01T03:00:00.637Z,98175.94
2019-06-01T03:02:28.702Z,98183.20
2019-06-01T03:04:57.095Z,98179.67
2019-06-01T03:07:26.546Z,98186.72
2019-06-01T03:09:54.878Z,98179.98
2019-06-01T03:12:23.423Z,98185.16
2019-06-01T03:14:51.938Z,98189.80
2019-06-01T03:17:22.886Z,98196.27
2019-06-01T03:19:52.069Z,98191.06
2019-06-01T03:22:21.507Z,98192.08
2019-06-01T03:24:51.210Z,98194.57
2019-06-01T03:27:21.388Z,98197.47
2019-06-01T03:29:54.540Z,98210.48
2019-06-01T03:32:35.391Z,98208.02
2019-06-01T03:34:52.310Z,98208.88
2019-06-01T03:37:20.429Z,98210.20
2019-06-01T03:39:48.971Z,98185.92
2019-06-01T03:42:17.202Z,98211.02
2019-06-01T03:44:45.282Z,98199.69
2019-06-01T03:47:13.277Z,98207.02
2019-06-01T03:49:43.059Z,98210.44
2019-06-01T03:52:11.125Z,98203.91
2019-06-01T03:54:39.234Z,98211.82
2019-06-01T03:57:07.323Z,98202.14
2019-06-01T03:59:36.924Z,98206.70
2019-06-01T04:02:05.130Z,98193.49
2019-06-01T04:04:33.324Z,98203.16
2019-06-01T04:07:01.353Z,98200.05
2019-06-01T04:09:29.586Z,98204.26
2019-06-01T04:11:57.800Z,98205.15
2019-06-01T04:14:25.651Z,98204.22
2019-06-01T04:16:53.187Z,98203.94
2019-06-01T04:19:20.905Z,98201.54
2019-06-01T04:21:48.461Z,98196.26
2019-06-01T04:24:16.094Z,98200.42
2019-06-01T04:26:43.688Z,98202.78
2019-06-01T04:29:12.566Z,98198.31
2019-06-01T04:31:40.513Z,98196.30
2019-06-01T04:34:08.843Z,98197.08
2019-06-01T04:36:37.960Z,98199.89
2019-06-01T04:39:07.346Z,98203.81
2019-06-01T04:41:35.653Z,98195.09
2019-06-01T04:44:03.826Z,98196.98
2019-06-01T04:46:32.103Z,98192.39
2019-06-01T04:49:00.330Z,98196.45
2019-06-01T04:51:28.310Z,98203.41
2019-06-01T04:53:56.495Z,98195.76
2019-06-01T04:56:24.507Z,98205.27
2019-06-01T04:58:52.495Z,98202.23
2019-06-01T05:01:20.578Z,98201.52
2019-06-01T05:03:48.619Z,98203.23
2019-06-01T05:06:16.774Z,98203.72
2019-06-01T05:08:44.663Z,98209.11
2019-06-01T05:11:13.577Z,98209.58
2019-06-01T05:13:41.570Z,98202.04
2019-06-01T05:16:10.034Z,98200.33
2019-06-01T05:18:38.392Z,98200.57
2019-06-01T05:21:06.433Z,98200.66
2019-06-01T05:23:34.276Z,98196.71
2019-06-01T05:26:02.002Z,98196.28
2019-06-01T05:28:29.543Z,98188.91
2019-06-01T05:30:57.227Z,98201.03
2019-06-01T05:33:36.916Z,98201.36
2019-06-01T05:35:54.397Z,98202.13
2019-06-01T05:38:21.927Z,98198.66
2019-06-01T05:40:49.593Z,98199.88
2019-06-01T05:43:19.220Z,98201.98
2019-06-01T05:45:46.719Z,98192.96
2019-06-01T05:48:20.827Z,98196.86
2019-06-01T05:50:43.927Z,98192.91
2019-06-01T05:53:12.478Z,98190.40
2019-06-01T05:55:40.316Z,98187.04
2019-06-01T05:58:08.017Z,98187.14
2019-06-01T06:00:38.266Z,98183.85
2019-06-01T06:03:05.902Z,98190.23
2019-06-01T06:05:33.586Z,98187.84
2019-06-01T06:08:01.144Z,98189.58
2019-06-01T06:10:28.836Z,98184.48
2019-06-01T06:12:56.576Z,98189.08
2019-06-01T06:15:25.355Z,98190.12
2019-06-01T06:17:53.071Z,98184.53
2019-06-01T06:20:20.757Z,98185.16
2019-06-01T06:22:48.489Z,98181.45
2019-06-01T06:25:16.164Z,98183.98
2019-06-01T06:27:44.098Z,98185.62
2019-06-01T06:30:12.822Z,98188.27
2019-06-01T06:32:40.498Z,98182.45
2019-06-01T06:35:08.258Z,98181.14
2019-06-01T06:37:35.987Z,98179.02
2019-06-01T06:40:04.371Z,98185.73
2019-06-01T06:42:32.440Z,98174.83
2019-06-01T06:45:03.527Z,98183.89
2019-06-01T06:47:30.680Z,98174.69
2019-06-01T06:49:58.411Z,98173.73
2019-06-01T06:52:26.028Z,98177.17
2019-06-01T06:54:53.711Z,98181.39
2019-06-01T06:57:22.129Z,98169.89
2019-06-01T06:59:50.075Z,98174.04
2019-06-01T07:02:18.770Z,98164.64
2019-06-01T07:04:47.003Z,98170.95
2019-06-01T07:07:14.992Z,98171.99
2019-06-01T07:09:42.672Z,98164.81
2019-06-01T07:12:10.706Z,98161.08
2019-06-01T07:14:38.773Z,98166.72
2019-06-01T07:17:06.834Z,98163.14
2019-06-01T07:19:35.868Z,98165.27
2019-06-01T07:22:04.073Z,98162.23
2019-06-01T07:24:32.297Z,98163.93
2019-06-01T07:27:00.217Z,98156.47
2019-06-01T07:29:28.439Z,98157.84
2019-06-01T07:31:56.436Z,98150.70
2019-06-01T07:34:34.532Z,98152.09
2019-06-01T07:36:55.758Z,98154.28
2019-06-01T07:39:24.865Z,98151.39
2019-06-01T07:41:52.949Z,98161.25
2019-06-01T07:44:21.189Z,98154.41
2019-06-01T07:46:49.156Z,98149.62
2019-06-01T07:49:17.035Z,98152.28
2019-06-01T07:51:45.094Z,98146.38
2019-06-01T07:54:13.102Z,98143.75
2019-06-01T07:56:41.243Z,98129.33
2019-06-01T07:59:09.259Z,98149.56
2019-06-01T08:01:37.673Z,98135.64
2019-06-01T08:04:05.414Z,98140.78
2019-06-01T08:06:33.247Z,98134.27
2019-06-01T08:09:01.106Z,98141.59
2019-06-01T08:11:32.747Z,98134.27
2019-06-01T08:14:00.035Z,98129.24
2019-06-01T08:16:27.995Z,98133.72
2019-06-01T08:18:55.652Z,98144.45
2019-06-01T08:21:26.046Z,98139.52
2019-06-01T08:23:53.706Z,98146.14
2019-06-01T08:26:22.200Z,98139.55
2019-06-01T08:28:50.033Z,98140.06
2019-06-01T08:31:17.803Z,98144.62
2019-06-01T08:33:45.411Z,98141.76
2019-06-01T08:36:13.124Z,98151.89
2019-06-01T08:38:40.848Z,98143.78
2019-06-01T08:41:08.575Z,98143.59
2019-06-01T08:43:36.226Z,98144.27
2019-06-01T08:46:04.104Z,98138.20
2019-06-01T08:48:32.003Z,98140.87
2019-06-01T08:51:00.170Z,98134.13
2019-06-01T08:53:28.227Z,98128.98
2019-06-01T08:55:55.938Z,98130.28
2019-06-01T08:58:24.165Z,98127.86
2019-06-01T09:00:52.207Z,98122.39
2019-06-01T09:03:20.302Z,98120.59
2019-06-01T09:05:48.283Z,98129.70
2019-06-01T09:08:15.990Z,98127.69
2019-06-01T09:10:43.568Z,98122.26
2019-06-01T09:13:11.256Z,98130.55
2019-06-01T09:15:38.877Z,98131.39
2019-06-01T09:18:06.496Z,98129.27
2019-06-01T09:20:37.508Z,98125.84
2019-06-01T09:23:03.783Z,98125.23
2019-06-01T09:25:31.761Z,98126.00
2019-06-01T09:27:59.409Z,98125.67
2019-06-01T09:30:27.978Z,98126.34
2019-06-01T09:32:55.844Z,98127.84
2019-06-01T09:35:40.717Z,98126.84
2019-06-01T09:37:53.970Z,98128.38
2019-06-01T09:40:22.112Z,98131.63
2019-06-01T09:42:50.220Z,98128.27
2019-06-01T09:45:18.469Z,98118.40
2019-06-01T09:47:46.582Z,98115.99
2019-06-01T09:50:14.490Z,98113.77
2019-06-01T09:52:42.128Z,98112.08
2019-06-01T09:55:10.137Z,98105.04
2019-06-01T09:57:38.367Z,98109.88
2019-06-01T10:00:07.319Z,98102.03
2019-06-01T10:02:36.185Z,98102.22
2019-06-01T10:05:05.478Z,98104.19
2019-06-01T10:07:33.061Z,98089.61
2019-06-01T10:10:01.217Z,98091.83
2019-06-01T10:12:29.853Z,98067.62
2019-06-01T10:14:58.012Z,98090.51
2019-06-01T10:17:25.634Z,98085.69
2019-06-01T10:19:53.369Z,98089.47
2019-06-01T10:22:21.363Z,98078.63
2019-06-01T10:24:49.347Z,98079.52
2019-06-01T10:27:17.255Z,98075.22
2019-06-01T10:29:45.381Z,98074.03
2019-06-01T10:32:13.713Z,98078.06
2019-06-01T10:34:42.105Z,98068.44
2019-06-01T10:37:09.764Z,98063.13
2019-06-01T10:39:37.420Z,98063.97
2019-06-01T10:42:05.007Z,98056.81
2019-06-01T10:44:37.907Z,98058.92
2019-06-01T10:47:02.290Z,98037.45
2019-06-01T10:49:29.955Z,98048.60
2019-06-01T10:51:57.708Z,98054.72
2019-06-01T10:54:25.687Z,98054.65
2019-06-01T10:56:53.837Z,98050.28
2019-06-01T10:59:21.925Z,98054.72
2019-06-01T11:01:49.997Z,98051.03
2019-06-01T11:04:18.284Z,98028.09
2019-06-01T11:06:48.765Z,98039.29
2019-06-01T11:09:16.592Z,98028.67
2019-06-01T11:11:44.231Z,98033.50
2019-06-01T11:14:11.902Z,98024.27
2019-06-01T11:16:41.714Z,98019.20
2019-06-01T11:19:09.781Z,98022.14
2019-06-01T11:21:37.520Z,98014.91
2019-06-01T11:24:05.182Z,98009.77
2019-06-01T11:26:33.351Z,98011.67
2019-06-01T11:29:01.384Z,98005.80
2019-06-01T11:31:29.470Z,97983.83
2019-06-01T11:33:57.446Z,98000.74
2019-06-01T11:36:25.682Z,98002.44
2019-06-01T11:38:53.730Z,97996.74
2019-06-01T11:41:21.821Z,97999.56
2019-06-01T11:43:49.970Z,97977.59
2019-06-01T11:46:18.300Z,97995.61
2019-06-01T11:48:47.324Z,97996.45
2019-06-01T11:51:15.356Z,97984.75
2019-06-01T11:53:43.569Z,97986.73
2019-06-01T11:56:11.664Z,97990.71
2019-06-01T11:58:39.857Z,97988.00
2019-06-01T12:01:07.959Z,97981.39
2019-06-01T12:03:36.021Z,97990.06
2019-06-01T12:06:04.413Z,97975.74
2019-06-01T12:08:34.175Z,97981.27
2019-06-01T12:11:02.486Z,97975.18
2019-06-01T12:13:30.455Z,97960.42
2019-06-01T12:15:58.740Z,97973.78
2019-06-01T12:18:27.256Z,97965.36
2019-06-01T12:20:54.902Z,97969.18
2019-06-01T12:23:22.498Z,97962.39
2019-06-01T12:25:50.213Z,97966.41
2019-06-01T12:28:17.807Z,97970.97
2019-06-01T12:30:45.817Z,97956.17
2019-06-01T12:33:13.803Z,97957.66
2019-06-01T12:35:42.013Z,97964.63
2019-06-01T12:38:09.999Z,97951.32
2019-06-01T12:40:37.656Z,97948.09
2019-06-01T12:43:05.420Z,97944.34
2019-06-01T12:45:33.005Z,97949.87
2019-06-01T12:48:00.824Z,97949.18
2019-06-01T12:50:28.442Z,97939.61
2019-06-01T12:52:56.171Z,97935.14
2019-06-01T12:55:23.778Z,97939.28
2019-06-01T12:57:51.726Z,97936.47
2019-06-01T13:00:20.641Z,97937.16
2019-06-01T13:02:59.269Z,97934.63
2019-06-01T13:05:19.104Z,97933.16
2019-06-01T13:07:57.540Z,97925.56
2019-06-01T13:10:17.103Z,97929.70
2019-06-01T13:12:45.236Z,97924.72
2019-06-01T13:15:15.574Z,97923.49
2019-06-01T13:17:45.155Z,97920.47
2019-06-01T13:20:14.020Z,97919.41
2019-06-01T13:22:41.909Z,97915.31
2019-06-01T13:25:09.964Z,97910.16
2019-06-01T13:27:40.806Z,97916.52
2019-06-01T13:30:10.388Z,97916.80
2019-06-01T13:32:38.349Z,97914.29
2019-06-01T13:35:06.727Z,97915.22
2019-06-01T13:37:34.477Z,97918.73
2019-06-01T13:40:02.130Z,97905.70
2019-06-01T13:42:29.951Z,97912.69
2019-06-01T13:44:57.512Z,97904.52
2019-06-01T13:47:25.183Z,97899.89
2019-06-01T13:49:54.184Z,97897.48
2019-06-01T13:52:22.288Z,97896.91
2019-06-01T13:54:50.623Z,97887.05
2019-06-01T13:57:18.755Z,97888.60
2019-06-01T13:59:46.989Z,97886.16
2019-06-01T14:02:14.634Z,97885.63
2019-06-01T14:04:42.155Z,97888.50
2019-06-01T14:07:09.798Z,97889.39
2019-06-01T14:09:37.396Z,97883.61
2019-06-01T14:12:05.100Z,97885.40
2019-06-01T14:14:32.684Z,97877.19
2019-06-01T14:17:00.324Z,97871.14
2019-06-01T14:19:27.927Z,97870.50
2019-06-01T14:21:55.967Z,97875.28
2019-06-01T14:24:23.641Z,97873.58
2019-06-01T14:26:52.329Z,97875.19
2019-06-01T14:29:20.258Z,97868.63
2019-06-01T14:31:48.500Z,97867.59
2019-06-01T14:34:17.352Z,97869.39
2019-06-01T14:36:46.310Z,97869.24
2019-06-01T14:39:14.344Z,97847.20
2019-06-01T14:41:42.289Z,97869.43
2019-06-01T14:44:10.241Z,97866.37
2019-06-01T14:46:52.954Z,97856.66
2019-06-01T14:49:08.298Z,97858.01
2019-06-01T14:51:36.247Z,97857.26
2019-06-01T14:54:04.543Z,97851.94
2019-06-01T14:56:32.445Z,97847.12
2019-06-01T14:59:02.195Z,97850.64
2019-06-01T15:01:32.866Z,97850.69
2019-06-01T15:04:01.203Z,97852.47
2019-06-01T15:06:29.108Z,97852.33
2019-06-01T15:09:15.797Z,97842.66
2019-06-01T15:11:27.174Z,97848.02
2019-06-01T15:13:54.940Z,97844.27
2019-06-01T15:16:22.656Z,97844.21
2019-06-01T15:18:51.505Z,97835.28
2019-06-01T15:21:19.341Z,97833.59
2019-06-01T15:23:49.814Z,97830.87
2019-06-01T15:26:17.579Z,97824.58
2019-06-01T15:28:45.340Z,97826.27
2019-06-01T15:31:13.036Z,97818.73
2019-06-01T15:33:40.736Z,97822.09
2019-06-01T15:36:08.348Z,97821.53
2019-06-01T15:38:36.129Z,97814.70
2019-06-01T15:41:03.892Z,97819.04
2019-06-01T15:43:31.498Z,97820.47
2019-06-01T15:45:59.850Z,97817.97
2019-06-01T15:48:27.587Z,97811.06
2019-06-01T15:51:00.609Z,97803.97
2019-06-01T15:53:25.683Z,97804.91
2019-06-01T15:55:54.314Z,97807.73
2019-06-01T15:58:22.089Z,97803.58
2019-06-01T16:00:49.746Z,97810.19
2019-06-01T16:03:18.371Z,97814.72
2019-06-01T16:05:46.198Z,97807.30
2019-06-01T16:08:14.015Z,97816.35
2019-06-01T16:10:41.916Z,97813.27
2019-06-01T16:13:09.537Z,97811.67
2019-06-01T16:15:37.476Z,97817.38
2019-06-01T16:18:05.532Z,97808.78
2019-06-01T16:20:33.493Z,97809.73
2019-06-01T16:23:02.507Z,97807.19
2019-06-01T16:25:30.335Z,97805.81
2019-06-01T16:27:58.703Z,97808.09
2019-06-01T16:30:26.474Z,97803.05
2019-06-01T16:32:54.436Z,97798.52
2019-06-01T16:35:22.277Z,97802.45
2019-06-01T16:37:49.853Z,97801.08
2019-06-01T16:40:17.537Z,97803.80
2019-06-01T16:42:45.736Z,97798.76
2019-06-01T16:45:14.391Z,97803.97
2019-06-01T16:47:42.604Z,97808.26
2019-06-01T16:50:11.937Z,97806.47
2019-06-01T16:52:39.645Z,97809.80
2019-06-01T16:55:08.559Z,97818.80
2019-06-01T16:57:36.879Z,97827.91
2019-06-01T17:00:07.037Z,97826.97
2019-06-01T17:02:35.498Z,97801.25
2019-06-01T17:05:03.345Z,97827.71
2019-06-01T17:07:30.957Z,97820.95
2019-06-01T17:10:03.447Z,97828.61
2019-06-01T17:12:28.109Z,97828.44
2019-06-01T17:14:56.790Z,97826.78
2019-06-01T17:17:24.637Z,97826.09
2019-06-01T17:19:52.321Z,97823.07
2019-06-01T17:22:20.053Z,97829.48
2019-06-01T17:24:47.598Z,97836.41
2019-06-01T17:27:15.344Z,97832.52
2019-06-01T17:29:42.912Z,97841.12
2019-06-01T17:32:23.100Z,97835.20
2019-06-01T17:34:40.175Z,97832.49
2019-06-01T17:37:08.952Z,97832.17
2019-06-01T17:39:36.752Z,97833.88
2019-06-01T17:42:04.518Z,97839.48
2019-06-01T17:44:32.162Z,97842.36
2019-06-01T17:46:59.999Z,97850.97
2019-06-01T17:49:27.662Z,97842.84
2019-06-01T17:51:55.393Z,97829.63
2019-06-01T17:54:22.980Z,97851.45
2019-06-01T17:56:50.684Z,97860.25
2019-06-01T17:59:18.275Z,97860.58
2019-06-01T18:01:46.662Z,97857.16
2019-06-01T18:04:14.273Z,97853.42
2019-06-01T18:06:41.885Z,97856.58
2019-06-01T18:09:10.284Z,97852.81
2019-06-01T18:11:38.080Z,97860.57
2019-06-01T18:14:08.231Z,97856.98
2019-06-01T18:16:36.161Z,97853.41
2019-06-01T18:19:04.171Z,97846.53
2019-06-01T18:21:33.496Z,97846.53
2019-06-01T18:24:04.557Z,97859.48
2019-06-01T18:26:32.566Z,97840.03
2019-06-01T18:29:00.540Z,97850.19
2019-06-01T18:31:28.753Z,97850.19
2019-06-01T18:33:56.753Z,97857.92
2019-06-01T18:36:24.789Z,97859.57
2019-06-01T18:38:53.130Z,97854.31
2019-06-01T18:41:21.005Z,97860.50
2019-06-01T18:43:49.087Z,97858.14
2019-06-01T18:46:17.392Z,97864.34
2019-06-01T18:48:45.463Z,97863.47
2019-06-01T18:51:14.467Z,97866.10
2019-06-01T18:53:42.792Z,97866.01
2019-06-01T18:56:10.752Z,97872.90
2019-06-01T18:58:38.381Z,97874.96
2019-06-01T19:01:06.475Z,97881.41
2019-06-01T19:03:34.511Z,97881.27
2019-06-01T19:06:02.414Z,97856.67
2019-06-01T19:08:30.078Z,97882.30
2019-06-01T19:10:58.110Z,97880.27
2019-06-01T19:13:26.007Z,97882.78
2019-06-01T19:15:53.909Z,97878.51
2019-06-01T19:18:21.699Z,97880.67
2019-06-01T19:20:49.255Z,97882.02
2019-06-01T19:23:21.724Z,97888.41
2019-06-01T19:25:46.358Z,97887.27
2019-06-01T19:28:15.275Z,97892.09
2019-06-01T19:30:44.054Z,97892.55
2019-06-01T19:33:14.282Z,97898.86
2019-06-01T19:35:41.235Z,97891.75
2019-06-01T19:38:09.148Z,97893.55
2019-06-01T19:40:38.124Z,97891.36
2019-06-01T19:43:07.342Z,97900.36
2019-06-01T19:45:36.372Z,97895.72
2019-06-01T19:48:06.057Z,97896.78
2019-06-01T19:50:33.801Z,97897.59
2019-06-01T19:53:02.804Z,97896.58
2019-06-01T19:55:30.554Z,97908.83
2019-06-01T19:57:59.925Z,97918.63
2019-06-01T20:00:28.919Z,97913.52
2019-06-01T20:02:56.551Z,97913.97
2019-06-01T20:05:24.303Z,97921.47
2019-06-01T20:07:51.904Z,97920.08
2019-06-01T20:10:19.452Z,97920.35
2019-06-01T20:12:47.228Z,97924.06
2019-06-01T20:15:15.550Z,97925.60
2019-06-01T20:17:43.333Z,97920.67
2019-06-01T20:20:11.228Z,97906.77
2019-06-01T20:22:38.863Z,97924.88
2019-06-01T20:25:06.865Z,97930.61
2019-06-01T20:27:34.567Z,97926.98
2019-06-01T20:30:02.311Z,97928.73
2019-06-01T20:32:30.364Z,97933.20
2019-06-01T20:34:57.959Z,97933.96
2019-06-01T20:37:25.617Z,97932.91
2019-06-01T20:39:53.211Z,97933.05
2019-06-01T20:42:31.362Z,97928.66
2019-06-01T20:44:50.689Z,97942.23
2019-06-01T20:47:18.922Z,97931.42
2019-06-01T20:49:47.604Z,97937.78
2019-06-01T20:52:16.786Z,97937.56
2019-06-01T20:54:44.752Z,97931.11
2019-06-01T20:57:13.312Z,97930.91
2019-06-01T20:59:40.973Z,97931.97
2019-06-01T21:02:08.560Z,97936.76
2019-06-01T21:04:36.349Z,97939.45
2019-06-01T21:07:04.089Z,97931.59
2019-06-01T21:09:31.755Z,97932.51
2019-06-01T21:11:59.525Z,97933.13
2019-06-01T21:14:27.141Z,97937.09
2019-06-01T21:16:54.743Z,97940.41
2019-06-01T21:19:22.524Z,97941.16
2019-06-01T21:21:50.458Z,97939.75
2019-06-01T21:24:18.794Z,97934.31
2019-06-01T21:26:46.834Z,97941.22
2019-06-01T21:29:14.684Z,97938.05
2019-06-01T21:31:42.449Z,97937.19
2019-06-01T21:34:10.584Z,97939.98
2019-06-01T21:36:41.563Z,97941.68
2019-06-01T21:39:08.003Z,97940.20
2019-06-01T21:41:35.862Z,97942.10
2019-06-01T21:44:03.694Z,97944.30
2019-06-01T21:46:31.369Z,97946.43
2019-06-01T21:48:58.997Z,97945.52
2019-06-01T21:51:26.685Z,97951.05
2019-06-01T21:53:54.314Z,97946.23
2019-06-01T21:56:23.714Z,97946.23
2019-06-01T21:58:51.510Z,97943.84
2019-06-01T22:01:19.146Z,97948.62
2019-06-01T22:03:46.717Z,97945.73
2019-06-01T22:06:14.343Z,97947.70
2019-06-01T22:08:51.073Z,97947.20
2019-06-01T22:11:11.454Z,97951.10
2019-06-01T22:13:39.004Z,97952.70
2019-06-01T22:16:06.978Z,97955.39
2019-06-01T22:18:34.987Z,97951.49
2019-06-01T22:21:02.704Z,97955.28
2019-06-01T22:23:30.455Z,97959.19
2019-06-01T22:25:58.160Z,97958.27
2019-06-01T22:28:26.361Z,97955.80
2019-06-01T22:30:54.122Z,97961.45
2019-06-01T22:33:23.010Z,97942.13
2019-06-01T22:35:50.824Z,97960.14
2019-06-01T22:38:19.606Z,97930.19
2019-06-01T22:40:47.445Z,97957.80
2019-06-01T22:43:15.184Z,97957.07
2019-06-01T22:45:42.879Z,97965.87
2019-06-01T22:48:10.669Z,97961.17
2019-06-01T22:50:38.529Z,97955.85
2019-06-01T22:53:06.154Z,97939.98
2019-06-01T22:55:33.955Z,97957.24
2019-06-01T22:58:01.636Z,97958.39
2019-06-01T23:00:29.866Z,97953.56
2019-06-01T23:02:57.701Z,97954.22
2019-06-01T23:05:25.277Z,97955.94
2019-06-01T23:07:52.968Z,97954.27
2019-06-01T23:10:27.434Z,97955.61
2019-06-01T23:12:50.063Z,97954.39
2019-06-01T23:15:17.628Z,97957.55
2019-06-01T23:17:45.287Z,97959.14
2019-06-01T23:20:12.914Z,97935.70
2019-06-01T23:22:40.570Z,97955.73
2019-06-01T23:25:08.234Z,97954.14
2019-06-01T23:27:35.896Z,97951.91
2019-06-01T23:30:04.142Z,97952.03
2019-06-01T23:32:32.705Z,97950.69
2019-06-01T23:35:00.479Z,97950.69
2019-06-01T23:37:28.831Z,97951.53
2019-06-01T23:39:56.700Z,97955.28
2019-06-01T23:42:24.606Z,97958.20
2019-06-01T23:44:52.351Z,97956.86
2019-06-01T23:47:19.909Z,97958.48
2019-06-01T23:49:47.610Z,97946.91
2019-06-01T23:52:15.231Z,97947.07
2019-06-01T23:54:43.733Z,97950.98
2019-06-01T23:57:11.346Z,97943.70
2019-06-01T23:59:38.978Z,97940.66
